ESNV

Vilhelmina Airport

Sweden
METAR ESNV 182120Z AUTO 27010KT 9999 -RA FEW004/// OVC055/// 10/07 Q0997 RESHRA
Observed Flight Rules
Aug-18 @ 21:20 UTC (34 minutes ago) Visual Flight Rules
Wind Visibility Clouds Conditions
270° at 10 knots 10,000+ meters
  • Few at 400' AGL
  • Overcast at 5,500' AGL
  • Light Rain
Temperatures Readings
Current 10°C / 50°F
Dewpoint 7°C / 45°F
Humidity 82%
Altimeter 29.44" Hg
Pressure 997 hPa
Elevation 348
METAR ESNV 182120Z AUTO 27010KT 9999 -RA FEW004/// OVC055/// 10/07 Q0997 RESHRA
Observed Flight Rules
Aug-18 @ 21:20 UTC
(34 minutes ago)
VFR
Wind Visibility
270° at 10 knots 10,000+ meters
Clouds
  • Few at 400' AGL
  • Overcast at 5,500' AGL
Conditions
  • Light Rain
Temperature Dewpoint
10°C / 50°F 7°C / 45°F
Humidity Altimeter Pressure
82% 29.44" Hg 997 hPa